This is the latest recevied weather packets stored in our database for station/object 9M4RBN-3. If no packets are shown the sender has not sent any weather packets the latest 1 day(s).
| Time | Temp. | Humidity | Pressure | Rain* | Wind** | Luminosity | Snow |
|---|---|---|---|---|---|---|---|
| 1777921598 | 27.78° C | 66% | 1014.5 hPa | - | - | - | - |
| 1777920698 | 27.78° C | 65% | 1014.7 hPa | - | - | - | - |
| 1777919798 | 27.78° C | 63% | 1014.8 hPa | - | - | - | - |
| 1777918898 | 27.78° C | 62% | 1015.1 hPa | - | - | - | - |
| 1777917998 | 27.78° C | 61% | 1015.3 hPa | - | - | - | - |
| 1777917098 | 27.78° C | 61% | 1015.6 hPa | - | - | - | - |
| 1777916198 | 27.22° C | 61% | 1015.8 hPa | - | - | - | - |
| 1777915298 | 27.22° C | 61% | 1015.9 hPa | - | - | - | - |
| 1777914398 | 27.22° C | 59% | 1016.1 hPa | - | - | - | - |
| 1777913498 | 26.67° C | 57% | 1016.3 hPa | - | - | - | - |
| 1777912598 | 26.11° C | 55% | 1016.4 hPa | - | - | - | - |
| 1777911698 | 25.56° C | 50% | 1016.2 hPa | - | - | - | - |
| 1777910798 | 25° C | 44% | 1016 hPa | - | - | - | - |
| 1777909898 | 25° C | 45% | 1015.9 hPa | - | - | - | - |
| 1777908998 | 25° C | 44% | 1016 hPa | - | - | - | - |
| 1777908098 | 25° C | 42% | 1016.2 hPa | - | - | - | - |
| 1777907197 | 25.56° C | 43% | 1016 hPa | - | - | - | - |
| 1777906297 | 25.56° C | 43% | 1015.9 hPa | - | - | - | - |
| 1777905399 | 25.56° C | 43% | 1015.6 hPa | - | - | - | - |
| 1777904499 | 25.56° C | 44% | 1015.6 hPa | - | - | - | - |
| 1777903599 | 26.11° C | 44% | 1015.4 hPa | - | - | - | - |
| 1777902699 | 26.11° C | 45% | 1015.4 hPa | - | - | - | - |
| 1777901799 | 26.11° C | 45% | 1015.2 hPa | - | - | - | - |
| 1777900899 | 26.11° C | 45% | 1015.1 hPa | - | - | - | - |
| 1777899999 | 26.11° C | 44% | 1015.1 hPa | - | - | - | - |
* Rain since midnight (hover to see other rain measurements)
** Current wind speed in m/s (hover to see current wind gust speed)